Current | Forecast
Updated: 11:00 AM JST on December 11, 2017
Observed at Fukuoka Airport, Japan
Temperature 48°F
Humidity 46%
Dew Point 28°F
Wind WNW at 16 mph
Pressure 30.09 in (Steady)
Conditions Mostly Cloudy
Visibility 6.2 miles
UV 2 out of 16
Clouds (FEW) : 3000 ft
Mostly Cloudy (BKN) : 5000 ft
Yesterday's Maximum 50°F
Yesterday's Minimum 45°F approx.
Yesterday's Heating Degree Days 18 approx.
Sunrise7:12 AM JST
Sunset5:10 PM JST
Moon Rise12:22 AM JST
Moon Set1:09 PM JST
Moon PhaseMoon Phase
Last Quarter
Raw METARMETAR RJFF 110200Z 30014KT 270V330 9999 FEW030 BKN050 09/M02 Q1019 RMK 1CU030 6SC050 A3011


Monday
. High: 73° F.
Tuesday
. High: 75° F.
Wednesday
. High: 69° F.
Thursday
. High: 75° F.
Friday
. High: 75° F.
Saturday
. High: 75° F.
Sunday
. High: 78° F.
Monday
. High: 78° F.

Units: English | Metric

Find the Weather for any City, State or Zipcode, or Country:

U.S. State List | Severe Weather | Tropical Storms | Ski Conditions
United States | Canada | Central America | South America | Asia | Europe | Australia | Africa | Islands

Weather Underground

© Copyright 2017
The Weather Company, LLC